sensor_id;sensor_type;location;lat;lon;timestamp;P1;durP1;ratioP1;P2;durP2;ratioP2
29030;SDS011;16122;50.236;11.734;2023-06-14T00:01:46;5.63;;;3.30;;
29030;SDS011;16122;50.236;11.734;2023-06-14T00:04:12;5.83;;;3.37;;
29030;SDS011;16122;50.236;11.734;2023-06-14T00:06:39;5.53;;;4.00;;
29030;SDS011;16122;50.236;11.734;2023-06-14T00:09:06;3.60;;;3.30;;
29030;SDS011;16122;50.236;11.734;2023-06-14T00:11:33;3.60;;;3.30;;
29030;SDS011;16122;50.236;11.734;2023-06-14T00:13:59;3.83;;;3.37;;
29030;SDS011;16122;50.236;11.734;2023-06-14T00:16:25;3.63;;;3.37;;
29030;SDS011;16122;50.236;11.734;2023-06-14T00:18:51;3.67;;;3.47;;
29030;SDS011;16122;50.236;11.734;2023-06-14T00:21:17;4.73;;;4.33;;
29030;SDS011;16122;50.236;11.734;2023-06-14T00:23:44;4.00;;;3.70;;
29030;SDS011;16122;50.236;11.734;2023-06-14T00:26:10;4.30;;;3.80;;
29030;SDS011;16122;50.236;11.734;2023-06-14T00:28:37;4.10;;;3.70;;
29030;SDS011;16122;50.236;11.734;2023-06-14T00:31:05;5.37;;;3.70;;
29030;SDS011;16122;50.236;11.734;2023-06-14T00:33:31;3.87;;;3.57;;
29030;SDS011;16122;50.236;11.734;2023-06-14T00:35:57;4.27;;;3.43;;
29030;SDS011;16122;50.236;11.734;2023-06-14T00:38:23;3.60;;;3.30;;
29030;SDS011;16122;50.236;11.734;2023-06-14T00:40:48;3.77;;;3.47;;
29030;SDS011;16122;50.236;11.734;2023-06-14T00:43:14;5.13;;;3.63;;
29030;SDS011;16122;50.236;11.734;2023-06-14T00:45:42;3.60;;;3.30;;
29030;SDS011;16122;50.236;11.734;2023-06-14T00:48:08;3.37;;;3.10;;
29030;SDS011;16122;50.236;11.734;2023-06-14T00:50:34;3.73;;;3.43;;
29030;SDS011;16122;50.236;11.734;2023-06-14T00:53:01;3.70;;;3.40;;
29030;SDS011;16122;50.236;11.734;2023-06-14T00:55:28;3.87;;;3.53;;
29030;SDS011;16122;50.236;11.734;2023-06-14T00:57:54;4.47;;;3.30;;
29030;SDS011;16122;50.236;11.734;2023-06-14T01:00:21;3.80;;;3.50;;
29030;SDS011;16122;50.236;11.734;2023-06-14T01:02:47;3.60;;;3.30;;
29030;SDS011;16122;50.236;11.734;2023-06-14T01:05:14;3.73;;;3.47;;
29030;SDS011;16122;50.236;11.734;2023-06-14T01:12:53;5.73;;;4.53;;
29030;SDS011;16122;50.236;11.734;2023-06-14T01:15:28;4.10;;;3.70;;
29030;SDS011;16122;50.236;11.734;2023-06-14T01:17:56;3.50;;;3.20;;
29030;SDS011;16122;50.236;11.734;2023-06-14T01:20:32;4.03;;;3.47;;
29030;SDS011;16122;50.236;11.734;2023-06-14T01:23:03;4.50;;;3.90;;
29030;SDS011;16122;50.236;11.734;2023-06-14T01:25:29;4.70;;;3.40;;
29030;SDS011;16122;50.236;11.734;2023-06-14T01:27:57;4.40;;;3.67;;
29030;SDS011;16122;50.236;11.734;2023-06-14T01:30:25;3.90;;;3.60;;
29030;SDS011;16122;50.236;11.734;2023-06-14T01:32:52;3.83;;;3.53;;
29030;SDS011;16122;50.236;11.734;2023-06-14T01:35:19;3.50;;;3.20;;
29030;SDS011;16122;50.236;11.734;2023-06-14T01:37:47;3.93;;;3.67;;
29030;SDS011;16122;50.236;11.734;2023-06-14T01:40:17;4.93;;;4.33;;
29030;SDS011;16122;50.236;11.734;2023-06-14T01:42:46;3.90;;;3.50;;
29030;SDS011;16122;50.236;11.734;2023-06-14T01:45:14;3.77;;;3.47;;
29030;SDS011;16122;50.236;11.734;2023-06-14T01:47:41;3.43;;;3.13;;
29030;SDS011;16122;50.236;11.734;2023-06-14T01:50:08;3.60;;;3.30;;
29030;SDS011;16122;50.236;11.734;2023-06-14T01:52:36;5.07;;;4.20;;
29030;SDS011;16122;50.236;11.734;2023-06-14T01:55:03;3.87;;;3.57;;
29030;SDS011;16122;50.236;11.734;2023-06-14T01:57:30;3.90;;;3.60;;
29030;SDS011;16122;50.236;11.734;2023-06-14T01:59:58;4.20;;;3.67;;
29030;SDS011;16122;50.236;11.734;2023-06-14T02:02:24;3.80;;;3.50;;
29030;SDS011;16122;50.236;11.734;2023-06-14T02:04:50;4.60;;;3.30;;
29030;SDS011;16122;50.236;11.734;2023-06-14T02:07:15;3.73;;;3.37;;
29030;SDS011;16122;50.236;11.734;2023-06-14T02:09:41;3.93;;;3.53;;
29030;SDS011;16122;50.236;11.734;2023-06-14T02:12:07;5.23;;;3.97;;
29030;SDS011;16122;50.236;11.734;2023-06-14T02:14:34;3.77;;;3.47;;
29030;SDS011;16122;50.236;11.734;2023-06-14T02:17:00;6.40;;;4.43;;
29030;SDS011;16122;50.236;11.734;2023-06-14T02:19:26;3.70;;;3.40;;
29030;SDS011;16122;50.236;11.734;2023-06-14T02:21:52;4.43;;;3.77;;
29030;SDS011;16122;50.236;11.734;2023-06-14T02:24:18;3.80;;;3.50;;
29030;SDS011;16122;50.236;11.734;2023-06-14T02:26:44;4.70;;;4.23;;
29030;SDS011;16122;50.236;11.734;2023-06-14T02:29:13;4.13;;;3.77;;
29030;SDS011;16122;50.236;11.734;2023-06-14T02:31:40;3.73;;;3.43;;
29030;SDS011;16122;50.236;11.734;2023-06-14T02:34:06;3.80;;;3.50;;
29030;SDS011;16122;50.236;11.734;2023-06-14T02:36:34;3.83;;;3.53;;
29030;SDS011;16122;50.236;11.734;2023-06-14T02:39:00;3.90;;;3.53;;
29030;SDS011;16122;50.236;11.734;2023-06-14T02:41:26;3.97;;;3.67;;
29030;SDS011;16122;50.236;11.734;2023-06-14T02:43:52;4.20;;;3.80;;
29030;SDS011;16122;50.236;11.734;2023-06-14T02:46:18;3.60;;;3.30;;
29030;SDS011;16122;50.236;11.734;2023-06-14T02:48:44;3.77;;;3.50;;
29030;SDS011;16122;50.236;11.734;2023-06-14T02:51:10;4.33;;;3.93;;
29030;SDS011;16122;50.236;11.734;2023-06-14T02:53:37;3.90;;;3.60;;
29030;SDS011;16122;50.236;11.734;2023-06-14T02:56:04;3.40;;;3.20;;
29030;SDS011;16122;50.236;11.734;2023-06-14T02:58:30;4.20;;;3.60;;
29030;SDS011;16122;50.236;11.734;2023-06-14T03:00:56;3.83;;;3.53;;
29030;SDS011;16122;50.236;11.734;2023-06-14T03:03:22;4.50;;;4.10;;
29030;SDS011;16122;50.236;11.734;2023-06-14T03:05:53;4.50;;;4.10;;
29030;SDS011;16122;50.236;11.734;2023-06-14T03:08:23;3.87;;;3.57;;
29030;SDS011;16122;50.236;11.734;2023-06-14T03:10:53;4.80;;;3.80;;
29030;SDS011;16122;50.236;11.734;2023-06-14T03:13:21;4.83;;;3.37;;
29030;SDS011;16122;50.236;11.734;2023-06-14T03:15:49;4.40;;;4.10;;
29030;SDS011;16122;50.236;11.734;2023-06-14T03:18:16;4.00;;;3.70;;
29030;SDS011;16122;50.236;11.734;2023-06-14T03:20:42;4.40;;;4.07;;
29030;SDS011;16122;50.236;11.734;2023-06-14T03:23:11;3.77;;;3.47;;
29030;SDS011;16122;50.236;11.734;2023-06-14T03:25:38;4.93;;;4.00;;
29030;SDS011;16122;50.236;11.734;2023-06-14T03:28:08;4.37;;;3.90;;
29030;SDS011;16122;50.236;11.734;2023-06-14T03:30:35;3.80;;;3.50;;
29030;SDS011;16122;50.236;11.734;2023-06-14T03:33:01;4.43;;;4.13;;
29030;SDS011;16122;50.236;11.734;2023-06-14T03:35:28;3.87;;;3.57;;
29030;SDS011;16122;50.236;11.734;2023-06-14T03:37:54;4.40;;;4.03;;
29030;SDS011;16122;50.236;11.734;2023-06-14T03:40:20;4.40;;;4.10;;
29030;SDS011;16122;50.236;11.734;2023-06-14T03:42:50;4.10;;;3.50;;
29030;SDS011;16122;50.236;11.734;2023-06-14T03:45:15;3.43;;;3.23;;
29030;SDS011;16122;50.236;11.734;2023-06-14T03:47:41;4.20;;;3.80;;
29030;SDS011;16122;50.236;11.734;2023-06-14T03:50:07;3.83;;;3.50;;
29030;SDS011;16122;50.236;11.734;2023-06-14T03:52:34;4.63;;;4.23;;
29030;SDS011;16122;50.236;11.734;2023-06-14T03:55:00;4.30;;;3.93;;
29030;SDS011;16122;50.236;11.734;2023-06-14T03:57:27;3.77;;;3.40;;
29030;SDS011;16122;50.236;11.734;2023-06-14T03:59:54;3.83;;;3.53;;
29030;SDS011;16122;50.236;11.734;2023-06-14T04:02:21;4.50;;;4.10;;
29030;SDS011;16122;50.236;11.734;2023-06-14T04:04:48;3.73;;;3.47;;
29030;SDS011;16122;50.236;11.734;2023-06-14T04:07:14;4.20;;;3.33;;
29030;SDS011;16122;50.236;11.734;2023-06-14T04:09:44;4.20;;;3.90;;
29030;SDS011;16122;50.236;11.734;2023-06-14T04:12:11;3.93;;;3.63;;
29030;SDS011;16122;50.236;11.734;2023-06-14T04:14:37;3.83;;;3.43;;
29030;SDS011;16122;50.236;11.734;2023-06-14T04:17:08;4.97;;;4.47;;
29030;SDS011;16122;50.236;11.734;2023-06-14T04:19:35;4.60;;;3.63;;
29030;SDS011;16122;50.236;11.734;2023-06-14T04:22:01;4.07;;;3.67;;
29030;SDS011;16122;50.236;11.734;2023-06-14T04:24:30;3.80;;;3.50;;
29030;SDS011;16122;50.236;11.734;2023-06-14T04:27:00;3.40;;;3.10;;
29030;SDS011;16122;50.236;11.734;2023-06-14T04:29:28;4.23;;;3.17;;
29030;SDS011;16122;50.236;11.734;2023-06-14T04:32:01;5.63;;;4.03;;
29030;SDS011;16122;50.236;11.734;2023-06-14T04:34:28;5.20;;;3.80;;
29030;SDS011;16122;50.236;11.734;2023-06-14T04:37:00;6.10;;;4.67;;
29030;SDS011;16122;50.236;11.734;2023-06-14T04:39:35;5.23;;;4.03;;
29030;SDS011;16122;50.236;11.734;2023-06-14T04:42:01;8.47;;;3.80;;
29030;SDS011;16122;50.236;11.734;2023-06-14T04:44:29;4.00;;;3.67;;
29030;SDS011;16122;50.236;11.734;2023-06-14T04:46:58;3.63;;;3.33;;
29030;SDS011;16122;50.236;11.734;2023-06-14T04:49:24;8.90;;;4.93;;
29030;SDS011;16122;50.236;11.734;2023-06-14T04:51:52;3.60;;;3.30;;
29030;SDS011;16122;50.236;11.734;2023-06-14T04:54:24;4.60;;;3.47;;
29030;SDS011;16122;50.236;11.734;2023-06-14T04:56:51;4.50;;;4.10;;
29030;SDS011;16122;50.236;11.734;2023-06-14T04:59:21;4.10;;;3.70;;
29030;SDS011;16122;50.236;11.734;2023-06-14T05:01:50;4.60;;;4.00;;
29030;SDS011;16122;50.236;11.734;2023-06-14T05:04:18;4.20;;;3.80;;
29030;SDS011;16122;50.236;11.734;2023-06-14T05:06:45;4.00;;;3.60;;
29030;SDS011;16122;50.236;11.734;2023-06-14T05:09:13;4.43;;;3.73;;
29030;SDS011;16122;50.236;11.734;2023-06-14T05:11:41;3.77;;;3.47;;
29030;SDS011;16122;50.236;11.734;2023-06-14T05:14:11;5.03;;;3.37;;
29030;SDS011;16122;50.236;11.734;2023-06-14T05:16:37;4.23;;;3.80;;
29030;SDS011;16122;50.236;11.734;2023-06-14T05:19:04;5.73;;;3.50;;
29030;SDS011;16122;50.236;11.734;2023-06-14T05:21:30;5.10;;;3.13;;
29030;SDS011;16122;50.236;11.734;2023-06-14T05:23:58;5.00;;;3.10;;
29030;SDS011;16122;50.236;11.734;2023-06-14T05:26:24;5.30;;;3.90;;
29030;SDS011;16122;50.236;11.734;2023-06-14T05:28:56;4.20;;;3.80;;
29030;SDS011;16122;50.236;11.734;2023-06-14T05:31:23;4.67;;;4.17;;
29030;SDS011;16122;50.236;11.734;2023-06-14T05:33:52;6.40;;;4.13;;
29030;SDS011;16122;50.236;11.734;2023-06-14T05:36:18;4.70;;;4.30;;
29030;SDS011;16122;50.236;11.734;2023-06-14T05:38:45;4.53;;;4.20;;
29030;SDS011;16122;50.236;11.734;2023-06-14T05:41:10;4.90;;;4.10;;
29030;SDS011;16122;50.236;11.734;2023-06-14T05:43:36;5.20;;;4.30;;
29030;SDS011;16122;50.236;11.734;2023-06-14T05:46:02;6.50;;;4.87;;
29030;SDS011;16122;50.236;11.734;2023-06-14T05:48:30;5.57;;;4.03;;
29030;SDS011;16122;50.236;11.734;2023-06-14T05:50:56;4.30;;;3.90;;
29030;SDS011;16122;50.236;11.734;2023-06-14T05:53:21;6.27;;;4.90;;
29030;SDS011;16122;50.236;11.734;2023-06-14T05:55:49;5.00;;;4.50;;
29030;SDS011;16122;50.236;11.734;2023-06-14T05:58:17;7.43;;;5.40;;
29030;SDS011;16122;50.236;11.734;2023-06-14T06:00:42;6.57;;;4.23;;
29030;SDS011;16122;50.236;11.734;2023-06-14T06:03:08;4.80;;;4.40;;
29030;SDS011;16122;50.236;11.734;2023-06-14T06:05:36;6.47;;;5.20;;
29030;SDS011;16122;50.236;11.734;2023-06-14T06:08:03;5.23;;;4.73;;
29030;SDS011;16122;50.236;11.734;2023-06-14T06:10:29;5.70;;;5.13;;
29030;SDS011;16122;50.236;11.734;2023-06-14T06:12:55;4.90;;;4.50;;
29030;SDS011;16122;50.236;11.734;2023-06-14T06:15:21;4.63;;;4.23;;
29030;SDS011;16122;50.236;11.734;2023-06-14T06:17:47;5.80;;;3.80;;
29030;SDS011;16122;50.236;11.734;2023-06-14T06:20:12;5.37;;;4.87;;
29030;SDS011;16122;50.236;11.734;2023-06-14T06:22:38;5.10;;;4.63;;
29030;SDS011;16122;50.236;11.734;2023-06-14T06:25:04;7.57;;;4.57;;
29030;SDS011;16122;50.236;11.734;2023-06-14T06:27:31;5.70;;;3.97;;
29030;SDS011;16122;50.236;11.734;2023-06-14T06:29:57;6.50;;;5.00;;
29030;SDS011;16122;50.236;11.734;2023-06-14T06:32:23;5.03;;;4.63;;
29030;SDS011;16122;50.236;11.734;2023-06-14T06:34:49;4.87;;;4.40;;
29030;SDS011;16122;50.236;11.734;2023-06-14T06:37:15;6.17;;;4.50;;
29030;SDS011;16122;50.236;11.734;2023-06-14T06:39:41;6.37;;;5.13;;
29030;SDS011;16122;50.236;11.734;2023-06-14T06:42:08;6.07;;;5.27;;
29030;SDS011;16122;50.236;11.734;2023-06-14T06:44:36;4.97;;;4.50;;
29030;SDS011;16122;50.236;11.734;2023-06-14T06:47:02;4.90;;;4.40;;
29030;SDS011;16122;50.236;11.734;2023-06-14T06:49:28;5.50;;;5.00;;
29030;SDS011;16122;50.236;11.734;2023-06-14T06:52:04;4.53;;;4.10;;
29030;SDS011;16122;50.236;11.734;2023-06-14T06:54:30;4.33;;;3.93;;
29030;SDS011;16122;50.236;11.734;2023-06-14T06:56:57;4.80;;;4.40;;
29030;SDS011;16122;50.236;11.734;2023-06-14T06:59:23;5.53;;;5.03;;
29030;SDS011;16122;50.236;11.734;2023-06-14T07:01:50;5.10;;;4.60;;
29030;SDS011;16122;50.236;11.734;2023-06-14T07:04:16;6.13;;;4.70;;
29030;SDS011;16122;50.236;11.734;2023-06-14T07:06:42;4.63;;;4.23;;
29030;SDS011;16122;50.236;11.734;2023-06-14T07:09:08;4.30;;;3.90;;
29030;SDS011;16122;50.236;11.734;2023-06-14T07:11:38;6.93;;;4.40;;
29030;SDS011;16122;50.236;11.734;2023-06-14T07:14:05;5.20;;;4.70;;
29030;SDS011;16122;50.236;11.734;2023-06-14T07:16:31;4.13;;;3.83;;
29030;SDS011;16122;50.236;11.734;2023-06-14T07:18:57;4.30;;;3.83;;
29030;SDS011;16122;50.236;11.734;2023-06-14T07:21:23;4.00;;;3.63;;
29030;SDS011;16122;50.236;11.734;2023-06-14T07:23:51;6.87;;;4.43;;
29030;SDS011;16122;50.236;11.734;2023-06-14T07:26:17;4.13;;;3.73;;
29030;SDS011;16122;50.236;11.734;2023-06-14T07:28:43;4.23;;;3.83;;
29030;SDS011;16122;50.236;11.734;2023-06-14T07:31:13;5.07;;;4.23;;
29030;SDS011;16122;50.236;11.734;2023-06-14T07:33:40;5.10;;;4.20;;
29030;SDS011;16122;50.236;11.734;2023-06-14T07:36:06;7.83;;;4.90;;
29030;SDS011;16122;50.236;11.734;2023-06-14T07:38:33;3.83;;;3.50;;
29030;SDS011;16122;50.236;11.734;2023-06-14T07:40:59;4.30;;;3.90;;
29030;SDS011;16122;50.236;11.734;2023-06-14T07:43:25;4.60;;;4.10;;
29030;SDS011;16122;50.236;11.734;2023-06-14T07:45:51;5.30;;;4.00;;
29030;SDS011;16122;50.236;11.734;2023-06-14T07:48:17;5.07;;;3.97;;
29030;SDS011;16122;50.236;11.734;2023-06-14T07:50:43;3.87;;;3.47;;
29030;SDS011;16122;50.236;11.734;2023-06-14T07:53:09;4.00;;;3.70;;
29030;SDS011;16122;50.236;11.734;2023-06-14T07:55:35;3.87;;;3.57;;
29030;SDS011;16122;50.236;11.734;2023-06-14T07:58:09;4.17;;;3.87;;
29030;SDS011;16122;50.236;11.734;2023-06-14T08:00:36;4.50;;;3.90;;
29030;SDS011;16122;50.236;11.734;2023-06-14T08:03:01;4.17;;;3.60;;
29030;SDS011;16122;50.236;11.734;2023-06-14T08:05:28;4.30;;;3.90;;
29030;SDS011;16122;50.236;11.734;2023-06-14T08:07:54;4.47;;;4.07;;
29030;SDS011;16122;50.236;11.734;2023-06-14T08:10:20;5.90;;;4.53;;
29030;SDS011;16122;50.236;11.734;2023-06-14T08:12:47;3.83;;;3.53;;
29030;SDS011;16122;50.236;11.734;2023-06-14T08:15:15;5.23;;;4.83;;
29030;SDS011;16122;50.236;11.734;2023-06-14T08:17:44;4.87;;;4.40;;
29030;SDS011;16122;50.236;11.734;2023-06-14T08:20:10;5.53;;;5.03;;
29030;SDS011;16122;50.236;11.734;2023-06-14T08:22:37;9.63;;;4.70;;
29030;SDS011;16122;50.236;11.734;2023-06-14T08:25:04;6.50;;;5.10;;
29030;SDS011;16122;50.236;11.734;2023-06-14T08:27:31;5.50;;;4.57;;
29030;SDS011;16122;50.236;11.734;2023-06-14T08:29:57;5.50;;;4.57;;
29030;SDS011;16122;50.236;11.734;2023-06-14T08:32:23;5.00;;;4.50;;
29030;SDS011;16122;50.236;11.734;2023-06-14T08:34:49;8.87;;;4.90;;
29030;SDS011;16122;50.236;11.734;2023-06-14T08:37:15;7.43;;;5.00;;
29030;SDS011;16122;50.236;11.734;2023-06-14T08:39:42;5.10;;;4.60;;
29030;SDS011;16122;50.236;11.734;2023-06-14T08:42:09;5.30;;;4.50;;
29030;SDS011;16122;50.236;11.734;2023-06-14T08:44:35;4.77;;;4.37;;
29030;SDS011;16122;50.236;11.734;2023-06-14T08:47:01;5.77;;;4.60;;
29030;SDS011;16122;50.236;11.734;2023-06-14T08:49:29;5.27;;;4.33;;
29030;SDS011;16122;50.236;11.734;2023-06-14T08:51:59;8.00;;;4.70;;
29030;SDS011;16122;50.236;11.734;2023-06-14T08:54:29;4.90;;;4.37;;
29030;SDS011;16122;50.236;11.734;2023-06-14T08:56:59;5.43;;;4.60;;
29030;SDS011;16122;50.236;11.734;2023-06-14T08:59:28;5.77;;;4.30;;
29030;SDS011;16122;50.236;11.734;2023-06-14T09:01:56;5.20;;;3.80;;
29030;SDS011;16122;50.236;11.734;2023-06-14T09:04:22;6.23;;;4.30;;
29030;SDS011;16122;50.236;11.734;2023-06-14T09:06:55;5.90;;;4.63;;
29030;SDS011;16122;50.236;11.734;2023-06-14T09:09:21;9.60;;;4.93;;
29030;SDS011;16122;50.236;11.734;2023-06-14T09:11:49;4.80;;;4.30;;
29030;SDS011;16122;50.236;11.734;2023-06-14T09:14:18;4.40;;;4.10;;
29030;SDS011;16122;50.236;11.734;2023-06-14T09:16:44;5.20;;;4.30;;
29030;SDS011;16122;50.236;11.734;2023-06-14T09:19:31;6.40;;;4.60;;
29030;SDS011;16122;50.236;11.734;2023-06-14T09:21:56;7.30;;;4.77;;
29030;SDS011;16122;50.236;11.734;2023-06-14T09:24:23;5.90;;;4.47;;
29030;SDS011;16122;50.236;11.734;2023-06-14T09:26:51;5.23;;;3.97;;
29030;SDS011;16122;50.236;11.734;2023-06-14T09:29:20;4.80;;;4.20;;
29030;SDS011;16122;50.236;11.734;2023-06-14T09:31:46;4.87;;;4.20;;
29030;SDS011;16122;50.236;11.734;2023-06-14T09:34:12;4.27;;;3.87;;
29030;SDS011;16122;50.236;11.734;2023-06-14T09:36:39;5.07;;;4.27;;
29030;SDS011;16122;50.236;11.734;2023-06-14T09:39:07;4.90;;;3.90;;
29030;SDS011;16122;50.236;11.734;2023-06-14T09:41:34;5.30;;;4.80;;
29030;SDS011;16122;50.236;11.734;2023-06-14T09:44:05;4.93;;;4.53;;
29030;SDS011;16122;50.236;11.734;2023-06-14T09:46:32;7.20;;;4.20;;
29030;SDS011;16122;50.236;11.734;2023-06-14T09:49:00;5.83;;;5.00;;
29030;SDS011;16122;50.236;11.734;2023-06-14T09:51:27;4.73;;;4.20;;
29030;SDS011;16122;50.236;11.734;2023-06-14T09:53:59;6.17;;;4.57;;
29030;SDS011;16122;50.236;11.734;2023-06-14T09:56:35;5.20;;;4.07;;
29030;SDS011;16122;50.236;11.734;2023-06-14T09:59:04;4.70;;;4.20;;
29030;SDS011;16122;50.236;11.734;2023-06-14T10:01:32;6.67;;;4.73;;
29030;SDS011;16122;50.236;11.734;2023-06-14T10:04:04;5.40;;;4.70;;
29030;SDS011;16122;50.236;11.734;2023-06-14T10:06:31;5.70;;;4.37;;
29030;SDS011;16122;50.236;11.734;2023-06-14T10:09:02;5.83;;;5.30;;
29030;SDS011;16122;50.236;11.734;2023-06-14T10:11:30;5.40;;;4.90;;
29030;SDS011;16122;50.236;11.734;2023-06-14T10:13:57;11.40;;;5.27;;
29030;SDS011;16122;50.236;11.734;2023-06-14T10:19:13;7.30;;;4.73;;
29030;SDS011;16122;50.236;11.734;2023-06-14T10:24:40;6.00;;;4.90;;
29030;SDS011;16122;50.236;11.734;2023-06-14T10:27:07;10.53;;;4.70;;
29030;SDS011;16122;50.236;11.734;2023-06-14T10:30:01;5.10;;;4.60;;
29030;SDS011;16122;50.236;11.734;2023-06-14T10:32:21;9.07;;;4.97;;
29030;SDS011;16122;50.236;11.734;2023-06-14T10:34:54;6.00;;;4.50;;
29030;SDS011;16122;50.236;11.734;2023-06-14T10:37:22;7.90;;;5.20;;
29030;SDS011;16122;50.236;11.734;2023-06-14T10:39:48;6.30;;;5.03;;
29030;SDS011;16122;50.236;11.734;2023-06-14T10:42:14;6.73;;;5.80;;
29030;SDS011;16122;50.236;11.734;2023-06-14T10:44:41;4.70;;;4.30;;
29030;SDS011;16122;50.236;11.734;2023-06-14T10:47:08;4.37;;;3.97;;
29030;SDS011;16122;50.236;11.734;2023-06-14T10:52:13;5.47;;;4.03;;
29030;SDS011;16122;50.236;11.734;2023-06-14T10:54:55;4.50;;;4.10;;
29030;SDS011;16122;50.236;11.734;2023-06-14T10:57:21;4.13;;;3.80;;
29030;SDS011;16122;50.236;11.734;2023-06-14T10:59:47;4.20;;;3.77;;
29030;SDS011;16122;50.236;11.734;2023-06-14T11:04:58;4.57;;;3.67;;
29030;SDS011;16122;50.236;11.734;2023-06-14T11:13:04;4.23;;;3.83;;
29030;SDS011;16122;50.236;11.734;2023-06-14T11:15:31;5.77;;;4.00;;
29030;SDS011;16122;50.236;11.734;2023-06-14T11:18:02;4.00;;;3.60;;
29030;SDS011;16122;50.236;11.734;2023-06-14T11:20:33;5.70;;;4.00;;
29030;SDS011;16122;50.236;11.734;2023-06-14T11:23:00;4.40;;;4.00;;
29030;SDS011;16122;50.236;11.734;2023-06-14T11:25:27;4.70;;;4.00;;
29030;SDS011;16122;50.236;11.734;2023-06-14T11:27:53;5.30;;;3.70;;
29030;SDS011;16122;50.236;11.734;2023-06-14T11:30:20;3.50;;;3.30;;
29030;SDS011;16122;50.236;11.734;2023-06-14T11:32:47;3.87;;;3.50;;
29030;SDS011;16122;50.236;11.734;2023-06-14T11:35:13;4.20;;;3.90;;
29030;SDS011;16122;50.236;11.734;2023-06-14T11:37:40;4.03;;;3.57;;
29030;SDS011;16122;50.236;11.734;2023-06-14T11:40:10;6.60;;;4.27;;
29030;SDS011;16122;50.236;11.734;2023-06-14T11:42:37;4.23;;;3.87;;
29030;SDS011;16122;50.236;11.734;2023-06-14T11:45:07;4.70;;;4.30;;
29030;SDS011;16122;50.236;11.734;2023-06-14T11:47:33;8.83;;;4.20;;
29030;SDS011;16122;50.236;11.734;2023-06-14T11:50:01;5.20;;;4.20;;
29030;SDS011;16122;50.236;11.734;2023-06-14T11:52:27;4.60;;;3.97;;
29030;SDS011;16122;50.236;11.734;2023-06-14T11:54:53;3.87;;;3.57;;
29030;SDS011;16122;50.236;11.734;2023-06-14T11:57:20;4.90;;;3.90;;
29030;SDS011;16122;50.236;11.734;2023-06-14T11:59:46;5.00;;;3.50;;
29030;SDS011;16122;50.236;11.734;2023-06-14T12:02:14;6.00;;;4.10;;
29030;SDS011;16122;50.236;11.734;2023-06-14T12:04:41;5.10;;;4.37;;
29030;SDS011;16122;50.236;11.734;2023-06-14T12:07:10;5.87;;;4.43;;
29030;SDS011;16122;50.236;11.734;2023-06-14T12:12:22;7.10;;;4.53;;
29030;SDS011;16122;50.236;11.734;2023-06-14T12:14:50;4.07;;;3.67;;
29030;SDS011;16122;50.236;11.734;2023-06-14T12:17:17;3.80;;;3.50;;
29030;SDS011;16122;50.236;11.734;2023-06-14T12:19:44;5.87;;;3.97;;
29030;SDS011;16122;50.236;11.734;2023-06-14T12:22:11;5.00;;;3.43;;
29030;SDS011;16122;50.236;11.734;2023-06-14T12:24:38;4.57;;;4.10;;
29030;SDS011;16122;50.236;11.734;2023-06-14T12:27:04;4.37;;;3.57;;
29030;SDS011;16122;50.236;11.734;2023-06-14T12:29:31;4.40;;;4.00;;
29030;SDS011;16122;50.236;11.734;2023-06-14T12:31:57;6.33;;;4.20;;
29030;SDS011;16122;50.236;11.734;2023-06-14T12:34:23;3.70;;;3.30;;
29030;SDS011;16122;50.236;11.734;2023-06-14T12:36:50;4.97;;;4.27;;
29030;SDS011;16122;50.236;11.734;2023-06-14T12:39:16;4.10;;;3.70;;
29030;SDS011;16122;50.236;11.734;2023-06-14T12:41:42;5.20;;;3.87;;
29030;SDS011;16122;50.236;11.734;2023-06-14T12:44:08;4.57;;;3.70;;
29030;SDS011;16122;50.236;11.734;2023-06-14T12:46:35;6.20;;;3.70;;
29030;SDS011;16122;50.236;11.734;2023-06-14T12:49:02;4.20;;;3.50;;
29030;SDS011;16122;50.236;11.734;2023-06-14T12:51:27;4.67;;;4.27;;
29030;SDS011;16122;50.236;11.734;2023-06-14T12:53:53;4.60;;;4.00;;
29030;SDS011;16122;50.236;11.734;2023-06-14T12:56:19;5.43;;;4.23;;
29030;SDS011;16122;50.236;11.734;2023-06-14T12:58:45;4.30;;;3.97;;
29030;SDS011;16122;50.236;11.734;2023-06-14T13:01:11;4.13;;;3.70;;
29030;SDS011;16122;50.236;11.734;2023-06-14T13:03:36;4.00;;;3.00;;
29030;SDS011;16122;50.236;11.734;2023-06-14T13:06:02;3.97;;;3.50;;
29030;SDS011;16122;50.236;11.734;2023-06-14T13:08:29;7.00;;;3.63;;
29030;SDS011;16122;50.236;11.734;2023-06-14T13:10:55;3.93;;;3.20;;
29030;SDS011;16122;50.236;11.734;2023-06-14T13:13:21;4.80;;;3.77;;
29030;SDS011;16122;50.236;11.734;2023-06-14T13:15:48;4.10;;;3.80;;
29030;SDS011;16122;50.236;11.734;2023-06-14T13:18:15;7.27;;;3.90;;
29030;SDS011;16122;50.236;11.734;2023-06-14T13:20:41;4.27;;;3.83;;
29030;SDS011;16122;50.236;11.734;2023-06-14T13:23:07;3.63;;;3.30;;
29030;SDS011;16122;50.236;11.734;2023-06-14T13:25:35;3.73;;;3.43;;
29030;SDS011;16122;50.236;11.734;2023-06-14T13:28:02;5.10;;;3.67;;
29030;SDS011;16122;50.236;11.734;2023-06-14T13:30:29;3.80;;;3.50;;
29030;SDS011;16122;50.236;11.734;2023-06-14T13:32:55;6.97;;;3.63;;
29030;SDS011;16122;50.236;11.734;2023-06-14T13:35:21;3.73;;;3.43;;
29030;SDS011;16122;50.236;11.734;2023-06-14T13:37:47;5.83;;;3.80;;
29030;SDS011;16122;50.236;11.734;2023-06-14T13:40:13;8.80;;;2.83;;
29030;SDS011;16122;50.236;11.734;2023-06-14T13:42:39;3.77;;;3.43;;
29030;SDS011;16122;50.236;11.734;2023-06-14T13:45:05;3.20;;;2.90;;
29030;SDS011;16122;50.236;11.734;2023-06-14T13:47:32;3.90;;;3.60;;
29030;SDS011;16122;50.236;11.734;2023-06-14T13:49:58;3.83;;;3.50;;
29030;SDS011;16122;50.236;11.734;2023-06-14T13:52:24;4.63;;;3.07;;
29030;SDS011;16122;50.236;11.734;2023-06-14T13:54:50;4.73;;;3.60;;
29030;SDS011;16122;50.236;11.734;2023-06-14T13:57:16;3.57;;;3.17;;
29030;SDS011;16122;50.236;11.734;2023-06-14T13:59:43;3.63;;;2.83;;
29030;SDS011;16122;50.236;11.734;2023-06-14T14:02:10;3.00;;;2.80;;
29030;SDS011;16122;50.236;11.734;2023-06-14T14:04:36;5.40;;;4.90;;
29030;SDS011;16122;50.236;11.734;2023-06-14T14:07:03;3.17;;;2.97;;
29030;SDS011;16122;50.236;11.734;2023-06-14T14:09:31;3.50;;;3.20;;
29030;SDS011;16122;50.236;11.734;2023-06-14T14:11:58;3.77;;;3.00;;
29030;SDS011;16122;50.236;11.734;2023-06-14T14:14:24;3.77;;;3.47;;
29030;SDS011;16122;50.236;11.734;2023-06-14T14:16:50;4.07;;;3.30;;
29030;SDS011;16122;50.236;11.734;2023-06-14T14:19:17;4.33;;;3.37;;
29030;SDS011;16122;50.236;11.734;2023-06-14T14:21:47;4.07;;;3.67;;
29030;SDS011;16122;50.236;11.734;2023-06-14T14:24:13;4.73;;;3.33;;
29030;SDS011;16122;50.236;11.734;2023-06-14T14:26:39;3.13;;;2.83;;
29030;SDS011;16122;50.236;11.734;2023-06-14T14:29:05;3.17;;;2.87;;
29030;SDS011;16122;50.236;11.734;2023-06-14T14:31:31;3.67;;;3.37;;
29030;SDS011;16122;50.236;11.734;2023-06-14T14:33:57;2.97;;;2.77;;
29030;SDS011;16122;50.236;11.734;2023-06-14T14:36:23;2.90;;;2.70;;
29030;SDS011;16122;50.236;11.734;2023-06-14T14:38:49;3.47;;;3.07;;
29030;SDS011;16122;50.236;11.734;2023-06-14T14:41:17;2.83;;;2.63;;
29030;SDS011;16122;50.236;11.734;2023-06-14T14:43:42;4.53;;;3.50;;
29030;SDS011;16122;50.236;11.734;2023-06-14T14:46:08;3.40;;;3.10;;
29030;SDS011;16122;50.236;11.734;2023-06-14T14:48:34;3.43;;;3.13;;
29030;SDS011;16122;50.236;11.734;2023-06-14T14:51:00;3.50;;;3.20;;
29030;SDS011;16122;50.236;11.734;2023-06-14T14:53:26;3.90;;;3.50;;
29030;SDS011;16122;50.236;11.734;2023-06-14T14:55:52;3.43;;;3.20;;
29030;SDS011;16122;50.236;11.734;2023-06-14T14:58:18;3.37;;;3.17;;